Time;durP1;ratioP1;P1;durP2;ratioP2;P2;SDS_P1;SDS_P2;PMS_P1;PMS_P2;Temp;Humidity;BMP_temperature;BMP_pressure;BME280_temperature;BME280_humidity;BME280_pressure;Samples;Min_cycle;Max_cycle;Signal;HPM_P1;HPM_P2
2021/10/01 00:00:05;;;;;;;3.00;1.33;;;12.30;99.90;;;;;;5130613;27;20305;-74
2021/10/01 00:02:31;;;;;;;2.13;1.50;;;12.30;99.90;;;;;;5130815;27;20233;-74
2021/10/01 00:05:00;;;;;;;1.57;1.40;;;12.30;99.90;;;;;;5130444;27;20205;-74
2021/10/01 00:07:27;;;;;;;1.20;1.10;;;12.30;99.90;;;;;;5130509;27;20245;-74
2021/10/01 00:09:54;;;;;;;3.87;1.53;;;12.20;99.90;;;;;;5130426;27;20201;-74
2021/10/01 00:12:21;;;;;;;3.43;1.50;;;12.30;99.90;;;;;;5130174;27;20663;-74
2021/10/01 00:14:48;;;;;;;5.17;1.40;;;12.30;99.90;;;;;;5130433;27;20201;-74
2021/10/01 00:17:15;;;;;;;3.10;1.40;;;12.30;99.90;;;;;;5130435;27;20250;-73
2021/10/01 00:19:42;;;;;;;2.87;1.30;;;12.30;99.90;;;;;;5130330;27;20209;-74
2021/10/01 00:22:10;;;;;;;4.63;1.60;;;12.30;99.90;;;;;;5130272;27;20221;-74
2021/10/01 00:24:36;;;;;;;1.97;1.47;;;12.20;99.90;;;;;;5129892;27;20262;-74
2021/10/01 00:27:08;;;;;;;4.10;1.50;;;12.20;99.90;;;;;;5130146;27;20250;-74
2021/10/01 00:29:35;;;;;;;3.40;1.47;;;12.30;99.90;;;;;;5130204;27;20190;-74
2021/10/01 00:32:02;;;;;;;3.40;1.20;;;12.20;99.90;;;;;;5130022;27;20213;-73
2021/10/01 00:34:28;;;;;;;1.40;1.30;;;12.20;99.90;;;;;;5130077;27;20647;-73
2021/10/01 00:36:55;;;;;;;3.23;1.77;;;12.20;99.90;;;;;;5130120;27;20205;-73
2021/10/01 00:39:23;;;;;;;2.77;1.30;;;12.20;99.90;;;;;;5129984;27;20257;-73
2021/10/01 00:41:50;;;;;;;2.43;1.37;;;12.20;99.90;;;;;;5130114;27;20591;-73
2021/10/01 00:44:17;;;;;;;4.20;1.63;;;12.20;99.90;;;;;;5130024;27;20226;-72
2021/10/01 00:46:43;;;;;;;1.63;1.33;;;12.20;99.90;;;;;;5129449;27;20228;-72
2021/10/01 00:49:10;;;;;;;1.33;1.23;;;12.20;99.90;;;;;;5129842;27;20233;-72
2021/10/01 00:51:39;;;;;;;1.70;1.30;;;12.10;99.90;;;;;;5129989;27;20209;-73
2021/10/01 00:54:06;;;;;;;1.93;1.27;;;12.10;99.90;;;;;;5129774;27;20304;-73
2021/10/01 00:56:34;;;;;;;2.33;1.50;;;12.10;99.90;;;;;;5129635;27;20209;-73
2021/10/01 00:59:00;;;;;;;3.23;1.20;;;12.00;99.90;;;;;;5129563;27;20229;-73
2021/10/01 01:01:27;;;;;;;3.03;1.40;;;12.00;99.90;;;;;;5129623;27;20197;-73
2021/10/01 01:03:59;;;;;;;2.10;1.77;;;12.00;99.90;;;;;;5129752;27;20245;-73
2021/10/01 01:06:34;;;;;;;2.83;1.63;;;12.00;99.90;;;;;;5129713;27;20189;-73
2021/10/01 01:09:07;;;;;;;2.53;1.40;;;12.00;99.90;;;;;;5129791;27;20307;-73
2021/10/01 01:11:50;;;;;;;2.33;1.47;;;12.00;99.90;;;;;;5130171;27;20228;-73
2021/10/01 01:14:20;;;;;;;2.03;1.30;;;11.90;99.90;;;;;;5129340;27;20186;-73
2021/10/01 01:16:48;;;;;;;2.43;1.40;;;11.90;99.90;;;;;;5129572;27;20205;-73
2021/10/01 01:19:29;;;;;;;2.97;1.37;;;11.90;99.90;;;;;;5129418;27;20217;-73
2021/10/01 01:22:06;;;;;;;2.23;1.40;;;11.90;99.90;;;;;;5129535;27;20265;-73
2021/10/01 01:25:10;;;;;;;3.63;1.60;;;11.90;99.90;;;;;;5129034;27;20200;-73
2021/10/01 01:27:51;;;;;;;2.20;1.70;;;11.90;99.90;;;;;;5086829;27;20246;-73
2021/10/01 01:30:21;;;;;;;3.03;1.30;;;11.90;99.90;;;;;;5129309;28;20204;-72
2021/10/01 01:32:53;;;;;;;1.77;1.40;;;11.90;99.90;;;;;;5129288;28;20624;-72
2021/10/01 01:35:25;;;;;;;3.67;1.30;;;11.90;99.90;;;;;;5129373;28;20608;-72
2021/10/01 01:37:55;;;;;;;1.87;1.10;;;11.80;99.90;;;;;;5128907;28;20189;-72
2021/10/01 01:40:26;;;;;;;2.23;1.20;;;11.80;99.90;;;;;;5129316;28;20194;-72
2021/10/01 01:42:55;;;;;;;2.00;1.37;;;11.80;99.90;;;;;;5129339;27;20232;-72
2021/10/01 01:45:22;;;;;;;2.03;1.67;;;11.80;99.90;;;;;;5133480;27;20205;-72
2021/10/01 01:47:52;;;;;;;3.43;1.20;;;11.80;99.90;;;;;;5133134;27;20694;-72
2021/10/01 01:50:19;;;;;;;3.60;1.70;;;11.70;99.90;;;;;;5133407;27;20205;-72
2021/10/01 01:52:47;;;;;;;1.90;1.43;;;11.70;99.90;;;;;;5132737;27;20675;-72
2021/10/01 01:55:15;;;;;;;2.50;1.60;;;11.70;99.90;;;;;;5133378;27;20205;-72
2021/10/01 01:57:47;;;;;;;2.83;1.70;;;11.70;99.90;;;;;;5133159;27;20233;-72
2021/10/01 02:00:14;;;;;;;2.10;1.50;;;11.70;99.90;;;;;;5132727;27;20260;-72
2021/10/01 02:02:42;;;;;;;2.73;1.43;;;11.70;99.90;;;;;;5133428;27;20215;-72
2021/10/01 02:05:11;;;;;;;2.20;1.83;;;11.70;99.90;;;;;;5133221;27;20201;-72
2021/10/01 02:07:40;;;;;;;1.90;1.50;;;11.70;99.90;;;;;;5133043;27;20202;-72
2021/10/01 02:10:08;;;;;;;2.43;1.70;;;11.70;99.90;;;;;;5132696;27;20254;-71
2021/10/01 02:12:35;;;;;;;2.00;1.40;;;11.70;99.90;;;;;;5132389;27;20285;-72
2021/10/01 02:15:04;;;;;;;2.03;1.53;;;11.60;99.90;;;;;;5132908;27;20225;-72
2021/10/01 02:17:34;;;;;;;1.97;1.77;;;11.70;99.90;;;;;;5133133;27;20205;-72
2021/10/01 02:20:02;;;;;;;2.90;1.90;;;11.70;99.90;;;;;;5132642;27;20664;-72
2021/10/01 02:22:32;;;;;;;1.57;1.33;;;11.60;99.90;;;;;;5132786;27;20311;-72
2021/10/01 02:24:58;;;;;;;1.60;1.50;;;11.60;99.90;;;;;;5132869;27;20214;-72
2021/10/01 02:27:31;;;;;;;1.90;1.60;;;11.60;99.90;;;;;;5132943;27;20274;-72
2021/10/01 02:30:01;;;;;;;2.47;1.63;;;11.50;99.90;;;;;;5132635;27;20230;-72
2021/10/01 02:32:32;;;;;;;2.20;1.63;;;11.50;99.90;;;;;;5132823;27;20198;-73
2021/10/01 02:35:00;;;;;;;1.80;1.70;;;11.50;99.90;;;;;;5132575;27;20197;-73
2021/10/01 02:37:27;;;;;;;2.03;1.50;;;11.50;99.90;;;;;;5132272;27;20690;-73
2021/10/01 02:39:56;;;;;;;2.97;1.60;;;11.50;99.90;;;;;;5132187;27;20213;-73
2021/10/01 02:42:25;;;;;;;1.83;1.50;;;11.50;99.90;;;;;;5132361;27;20258;-73
2021/10/01 02:44:53;;;;;;;3.20;1.93;;;11.40;99.90;;;;;;5131957;27;20683;-73
2021/10/01 02:47:21;;;;;;;1.83;1.73;;;11.40;99.90;;;;;;5132198;27;20225;-73
2021/10/01 02:49:48;;;;;;;2.30;1.53;;;11.40;99.90;;;;;;5132039;27;20221;-73
2021/10/01 02:52:24;;;;;;;2.03;1.60;;;11.40;99.90;;;;;;5130898;27;20201;-74
2021/10/01 02:55:00;;;;;;;1.90;1.70;;;11.40;99.90;;;;;;5119474;27;20663;-74
2021/10/01 02:57:34;;;;;;;4.70;1.80;;;11.40;99.90;;;;;;5131783;27;20904;-74
2021/10/01 03:00:04;;;;;;;1.83;1.53;;;11.40;99.90;;;;;;5131638;27;20244;-81
2021/10/01 03:02:33;;;;;;;1.90;1.80;;;11.40;99.90;;;;;;5131913;27;20209;-74
2021/10/01 03:05:02;;;;;;;3.27;1.70;;;11.40;99.90;;;;;;5123671;27;20194;-74
2021/10/01 03:07:29;;;;;;;3.40;1.80;;;11.40;99.90;;;;;;5108322;28;20202;-74
2021/10/01 03:09:59;;;;;;;3.17;2.00;;;11.40;99.90;;;;;;5107428;28;20230;-74
2021/10/01 03:12:26;;;;;;;1.60;1.50;;;11.30;99.90;;;;;;5107610;28;20322;-73
2021/10/01 03:14:53;;;;;;;5.77;2.10;;;11.30;99.90;;;;;;5107278;28;20546;-74
2021/10/01 03:17:20;;;;;;;2.87;1.70;;;11.30;99.90;;;;;;5107629;27;20225;-73
2021/10/01 03:19:49;;;;;;;2.60;1.70;;;11.30;99.90;;;;;;5106774;28;20721;-79
2021/10/01 03:22:17;;;;;;;3.83;2.97;;;11.30;99.90;;;;;;5107203;28;20779;-78
2021/10/01 03:24:45;;;;;;;4.50;3.03;;;11.20;99.90;;;;;;5107068;28;20215;-78
2021/10/01 03:27:13;;;;;;;2.67;2.03;;;11.30;99.90;;;;;;5107711;28;20206;-73
2021/10/01 03:29:40;;;;;;;2.87;1.93;;;11.20;99.90;;;;;;5107632;28;20290;-74
2021/10/01 03:32:08;;;;;;;1.87;1.60;;;11.20;99.90;;;;;;5106900;28;20275;-73
2021/10/01 03:34:34;;;;;;;2.10;1.90;;;11.20;99.90;;;;;;5107241;28;20242;-74
2021/10/01 03:37:01;;;;;;;2.90;1.80;;;11.20;99.90;;;;;;5107064;27;20247;-74
2021/10/01 03:39:28;;;;;;;2.10;1.83;;;11.20;99.90;;;;;;5106941;28;20217;-74
2021/10/01 03:41:55;;;;;;;1.80;1.70;;;11.10;99.90;;;;;;5106881;28;20234;-74
2021/10/01 03:44:23;;;;;;;2.03;1.60;;;11.10;99.90;;;;;;5106939;28;20629;-74
2021/10/01 03:46:49;;;;;;;1.60;1.50;;;11.10;99.90;;;;;;5106658;28;20263;-73
2021/10/01 03:49:16;;;;;;;3.77;1.67;;;11.10;99.90;;;;;;5106822;28;20226;-74
2021/10/01 03:51:43;;;;;;;2.07;1.90;;;11.10;99.90;;;;;;5106892;28;20259;-74
2021/10/01 03:54:11;;;;;;;1.83;1.73;;;11.00;99.90;;;;;;5106761;28;20208;-74
2021/10/01 03:56:38;;;;;;;3.13;1.63;;;11.00;99.90;;;;;;5106576;28;20220;-74
2021/10/01 03:59:04;;;;;;;2.13;1.83;;;11.00;99.90;;;;;;5105467;28;20585;-74
2021/10/01 04:01:32;;;;;;;2.17;1.60;;;11.00;99.90;;;;;;5096430;28;20206;-73
2021/10/01 04:03:59;;;;;;;1.73;1.63;;;11.00;99.90;;;;;;5101248;28;20206;-74
2021/10/01 04:06:26;;;;;;;3.70;1.70;;;11.00;99.90;;;;;;5109611;28;20202;-74
2021/10/01 04:08:52;;;;;;;3.00;1.80;;;11.00;99.90;;;;;;5109621;28;20221;-73
2021/10/01 04:11:21;;;;;;;2.93;1.60;;;11.00;99.90;;;;;;5109099;28;20287;-73
2021/10/01 04:13:47;;;;;;;1.87;1.70;;;11.00;99.90;;;;;;5099019;28;20613;-73
2021/10/01 04:16:14;;;;;;;2.17;1.87;;;11.00;99.90;;;;;;5097926;28;20199;-73
2021/10/01 04:18:42;;;;;;;2.47;1.80;;;11.00;99.90;;;;;;5099548;28;20194;-73
2021/10/01 04:21:08;;;;;;;1.80;1.70;;;11.00;99.90;;;;;;5098717;28;20258;-73
2021/10/01 04:23:35;;;;;;;1.90;1.70;;;11.10;99.90;;;;;;5099339;28;20203;-74
2021/10/01 04:26:02;;;;;;;1.87;1.70;;;11.00;99.90;;;;;;5098053;28;20252;-73
2021/10/01 04:28:28;;;;;;;2.00;1.77;;;11.00;99.90;;;;;;5098242;28;20205;-73
2021/10/01 04:30:55;;;;;;;3.13;1.70;;;11.00;99.90;;;;;;5099356;28;20198;-73
2021/10/01 04:33:23;;;;;;;2.17;1.50;;;11.00;99.90;;;;;;5096227;28;20198;-73
2021/10/01 04:35:52;;;;;;;2.33;1.60;;;11.00;99.90;;;;;;5098531;28;20278;-73
2021/10/01 04:38:20;;;;;;;2.97;1.83;;;11.00;99.90;;;;;;5099004;28;20259;-73
2021/10/01 04:40:46;;;;;;;1.70;1.60;;;11.00;99.90;;;;;;5097772;28;20648;-73
2021/10/01 04:43:13;;;;;;;1.80;1.63;;;11.00;99.90;;;;;;5096670;28;20660;-73
2021/10/01 04:45:40;;;;;;;1.70;1.60;;;11.00;99.90;;;;;;5096485;28;20774;-73
2021/10/01 04:48:07;;;;;;;1.77;1.60;;;11.00;99.90;;;;;;5099483;28;20204;-74
2021/10/01 04:50:34;;;;;;;1.80;1.70;;;11.00;99.90;;;;;;5100991;28;20258;-73
2021/10/01 04:53:03;;;;;;;2.97;1.77;;;11.00;99.90;;;;;;5096753;28;20254;-73
2021/10/01 04:55:32;;;;;;;1.70;1.60;;;11.00;99.90;;;;;;5099769;27;20192;-74
2021/10/01 04:57:58;;;;;;;1.70;1.60;;;11.00;99.90;;;;;;5098653;28;20202;-74
2021/10/01 05:00:25;;;;;;;2.17;1.80;;;11.00;99.90;;;;;;5097362;28;20641;-73
2021/10/01 05:02:52;;;;;;;4.67;1.70;;;11.00;99.90;;;;;;5097011;28;20371;-73
2021/10/01 05:05:18;;;;;;;1.90;1.73;;;10.90;99.90;;;;;;5098929;28;20248;-73
2021/10/01 05:07:46;;;;;;;2.50;1.60;;;11.00;99.90;;;;;;5098079;28;20244;-77
2021/10/01 05:10:15;;;;;;;2.60;1.90;;;11.00;99.90;;;;;;5098744;28;20233;-77
2021/10/01 05:12:42;;;;;;;1.60;1.50;;;11.00;99.90;;;;;;5095615;28;20610;-73
2021/10/01 05:15:09;;;;;;;1.87;1.53;;;11.00;99.90;;;;;;5096123;28;20676;-73
2021/10/01 05:17:38;;;;;;;1.70;1.60;;;11.00;99.90;;;;;;5106542;28;20206;-73
2021/10/01 05:20:06;;;;;;;2.37;1.53;;;10.90;99.90;;;;;;5107595;28;20222;-73
2021/10/01 05:22:33;;;;;;;2.80;1.30;;;10.90;99.90;;;;;;5107759;28;20237;-73
2021/10/01 05:25:01;;;;;;;2.77;1.70;;;10.90;99.90;;;;;;5106761;28;20589;-73
2021/10/01 05:27:30;;;;;;;1.47;1.37;;;10.90;99.90;;;;;;5106950;28;20198;-73
2021/10/01 05:29:57;;;;;;;1.70;1.60;;;10.90;99.90;;;;;;5097693;28;20249;-73
2021/10/01 05:32:24;;;;;;;1.37;1.30;;;10.90;99.90;;;;;;5092610;28;20715;-73
2021/10/01 05:34:52;;;;;;;1.60;1.50;;;10.90;99.90;;;;;;5097740;28;20633;-74
2021/10/01 05:37:19;;;;;;;1.80;1.30;;;10.90;99.90;;;;;;5100018;28;20299;-73
2021/10/01 05:39:46;;;;;;;1.53;1.20;;;10.90;99.90;;;;;;5095331;28;20218;-72
2021/10/01 05:42:13;;;;;;;1.60;1.50;;;10.90;99.90;;;;;;5097764;28;20283;-73
2021/10/01 05:44:41;;;;;;;2.27;1.50;;;10.90;99.90;;;;;;5096518;28;20218;-72
2021/10/01 05:47:08;;;;;;;2.00;1.43;;;11.00;99.90;;;;;;5095464;28;20199;-73
2021/10/01 05:49:38;;;;;;;1.50;1.30;;;11.00;99.90;;;;;;5097004;28;20222;-73
2021/10/01 05:52:17;;;;;;;3.63;1.60;;;11.00;99.90;;;;;;5097575;28;20202;-72
2021/10/01 05:54:44;;;;;;;2.57;1.40;;;11.00;99.90;;;;;;5096958;28;20187;-72
2021/10/01 05:57:11;;;;;;;1.90;1.30;;;11.00;99.90;;;;;;5095273;28;20202;-72
2021/10/01 05:59:39;;;;;;;3.10;1.60;;;11.10;99.90;;;;;;5094973;28;20225;-72
2021/10/01 06:02:12;;;;;;;1.67;1.57;;;11.10;99.90;;;;;;5097374;28;20260;-72
2021/10/01 06:04:39;;;;;;;2.30;1.57;;;11.10;99.90;;;;;;5094588;28;20651;-72
2021/10/01 06:07:06;;;;;;;1.63;1.50;;;11.10;99.90;;;;;;5097071;28;20660;-72
2021/10/01 06:09:33;;;;;;;6.10;1.37;;;11.10;99.90;;;;;;5094334;28;20226;-73
2021/10/01 06:12:00;;;;;;;2.27;2.10;;;11.10;99.90;;;;;;5094034;28;20199;-73
2021/10/01 06:14:26;;;;;;;1.77;1.67;;;11.20;99.90;;;;;;5098377;28;20302;-73
2021/10/01 06:16:54;;;;;;;1.37;1.37;;;11.20;99.90;;;;;;5097366;28;20202;-72
2021/10/01 06:19:22;;;;;;;2.67;1.50;;;11.20;99.90;;;;;;5094523;28;20202;-72
2021/10/01 06:21:51;;;;;;;1.70;1.60;;;11.20;99.90;;;;;;5094390;28;20778;-72
2021/10/01 06:24:19;;;;;;;2.93;1.47;;;11.30;99.90;;;;;;5095018;28;20204;-72
2021/10/01 06:26:47;;;;;;;1.57;1.47;;;11.30;99.90;;;;;;5092151;28;20195;-72
2021/10/01 06:29:15;;;;;;;2.53;1.30;;;11.30;99.90;;;;;;5095138;28;20202;-72
2021/10/01 06:31:41;;;;;;;1.97;1.17;;;11.30;99.90;;;;;;5100020;28;20206;-72
2021/10/01 06:34:08;;;;;;;2.23;1.73;;;11.40;99.90;;;;;;5098794;28;20284;-72
2021/10/01 06:36:36;;;;;;;3.30;3.10;;;11.40;99.90;;;;;;5100364;28;20202;-72
2021/10/01 06:39:04;;;;;;;1.90;1.80;;;11.40;99.90;;;;;;5100468;28;20237;-72
2021/10/01 06:41:31;;;;;;;1.50;1.40;;;11.40;99.90;;;;;;5101483;28;20259;-72
2021/10/01 06:44:00;;;;;;;2.70;1.40;;;11.40;99.90;;;;;;5097004;28;20280;-72
2021/10/01 06:46:33;;;;;;;1.57;1.40;;;11.50;99.90;;;;;;5100925;28;20203;-72
2021/10/01 06:49:13;;;;;;;2.00;1.17;;;11.50;99.90;;;;;;5099376;28;20641;-72
2021/10/01 06:51:57;;;;;;;1.13;1.00;;;11.50;99.90;;;;;;5100266;28;20198;-72
2021/10/01 07:22:06;;;;;;;3.13;1.50;;;11.70;99.90;;;;;;5104555;27;20579;-75
2021/10/01 07:36:02;;;;;;;1.17;1.00;;;11.90;99.90;;;;;;5129530;27;20254;-72
2021/10/01 08:19:48;;;;;;;2.77;1.10;;;13.00;99.90;;;;;;5085702;28;20338;-73
2021/10/01 08:22:14;;;;;;;2.23;1.27;;;13.10;99.90;;;;;;5086074;28;20206;-73
2021/10/01 08:24:41;;;;;;;1.40;1.10;;;13.10;99.90;;;;;;5085617;28;20199;-73
2021/10/01 08:27:09;;;;;;;1.63;1.00;;;13.10;99.90;;;;;;5101117;27;20237;-73
2021/10/01 08:29:37;;;;;;;1.60;0.87;;;13.20;99.90;;;;;;5106353;28;20213;-73
2021/10/01 08:32:05;;;;;;;3.37;0.87;;;13.20;99.90;;;;;;5106128;28;20210;-73
2021/10/01 08:34:33;;;;;;;0.97;0.83;;;13.30;99.90;;;;;;5105929;28;20210;-73
2021/10/01 08:37:00;;;;;;;0.87;0.87;;;13.40;99.90;;;;;;5104861;28;20692;-73
2021/10/01 08:39:27;;;;;;;2.13;0.90;;;13.50;99.90;;;;;;5115778;27;20960;-73
2021/10/01 08:41:54;;;;;;;1.83;1.27;;;13.50;99.90;;;;;;5112240;27;20746;-73
2021/10/01 08:44:21;;;;;;;2.60;0.97;;;13.60;99.90;;;;;;5107214;27;20226;-73
2021/10/01 08:46:51;;;;;;;2.43;1.10;;;13.60;99.90;;;;;;5102656;28;20268;-73
2021/10/01 08:49:18;;;;;;;1.97;1.00;;;13.70;99.90;;;;;;5091652;28;20234;-73
2021/10/01 08:51:45;;;;;;;1.27;0.90;;;13.70;99.90;;;;;;5095524;28;20638;-73
2021/10/01 08:54:12;;;;;;;1.47;1.13;;;13.80;99.90;;;;;;5097489;28;20687;-73
2021/10/01 08:56:39;;;;;;;2.33;1.10;;;13.90;99.90;;;;;;5099155;28;20206;-73
2021/10/01 08:59:05;;;;;;;1.50;1.20;;;14.00;99.90;;;;;;5094236;28;20266;-73
2021/10/01 09:01:32;;;;;;;0.83;0.83;;;14.00;99.90;;;;;;5097233;28;20194;-73
2021/10/01 09:04:00;;;;;;;1.00;0.87;;;14.10;99.90;;;;;;5097372;28;20232;-73
2021/10/01 09:06:27;;;;;;;5.90;1.20;;;14.10;99.90;;;;;;5094044;28;20294;-73
2021/10/01 09:08:56;;;;;;;1.50;1.00;;;14.20;99.90;;;;;;5091555;28;20195;-73
2021/10/01 09:11:28;;;;;;;1.50;1.10;;;14.20;99.90;;;;;;5092366;28;20322;-73
2021/10/01 09:13:55;;;;;;;3.43;1.13;;;14.20;99.90;;;;;;5102133;28;20251;-73
2021/10/01 09:16:22;;;;;;;0.70;0.70;;;14.20;99.90;;;;;;5100999;27;20254;-73
2021/10/01 09:18:49;;;;;;;0.87;0.83;;;14.20;99.90;;;;;;5097693;28;20198;-73
2021/10/01 09:21:19;;;;;;;2.17;1.20;;;14.30;99.90;;;;;;5096836;28;20695;-73
2021/10/01 09:24:00;;;;;;;1.10;0.70;;;14.30;99.90;;;;;;5098481;28;20211;-73
2021/10/01 09:26:29;;;;;;;0.97;0.83;;;14.30;99.90;;;;;;5093143;28;20757;-73
2021/10/01 09:28:57;;;;;;;2.27;0.93;;;14.40;99.90;;;;;;5095715;28;20198;-73
2021/10/01 09:31:39;;;;;;;1.80;0.70;;;14.50;99.90;;;;;;5094539;28;20222;-73
2021/10/01 09:34:08;;;;;;;1.80;0.63;;;14.60;99.90;;;;;;5094305;28;20288;-73
2021/10/01 09:36:36;;;;;;;1.17;0.90;;;14.70;99.90;;;;;;5091089;28;20665;-73
2021/10/01 09:39:04;;;;;;;1.73;1.20;;;14.80;99.90;;;;;;5091358;28;20267;-73
2021/10/01 09:41:34;;;;;;;2.30;0.90;;;14.90;99.90;;;;;;5102573;28;20259;-73
2021/10/01 09:44:06;;;;;;;1.73;1.03;;;15.00;99.90;;;;;;5090460;28;20758;-73
2021/10/01 09:46:38;;;;;;;3.77;0.80;;;15.00;99.90;;;;;;5096392;28;20556;-73
2021/10/01 09:49:06;;;;;;;1.97;0.80;;;15.10;99.90;;;;;;5094369;28;20259;-73
2021/10/01 09:51:34;;;;;;;2.77;1.10;;;15.20;99.90;;;;;;5095007;28;20718;-73
2021/10/01 09:54:13;;;;;;;0.73;0.63;;;15.20;99.90;;;;;;5093269;28;20199;-73
2021/10/01 09:56:40;;;;;;;0.70;0.70;;;15.30;99.90;;;;;;5092679;28;20540;-73
2021/10/01 09:59:10;;;;;;;1.60;1.00;;;15.40;99.90;;;;;;5094228;28;20234;-74
2021/10/01 10:01:52;;;;;;;0.97;0.80;;;15.40;99.90;;;;;;5093399;28;20234;-74
2021/10/01 10:04:19;;;;;;;1.57;0.60;;;15.50;99.90;;;;;;5094269;28;20199;-73
2021/10/01 10:06:46;;;;;;;0.60;0.60;;;15.50;99.90;;;;;;5098470;28;20203;-72
2021/10/01 10:09:15;;;;;;;0.70;0.70;;;15.60;99.90;;;;;;5099192;28;20234;-72
2021/10/01 10:11:43;;;;;;;1.13;1.03;;;15.70;99.90;;;;;;5097516;28;20350;-73
2021/10/01 10:14:11;;;;;;;2.33;0.80;;;15.80;99.90;;;;;;5097689;28;20283;-73
2021/10/01 10:16:39;;;;;;;1.43;0.90;;;15.90;99.90;;;;;;5097265;28;20203;-73
2021/10/01 10:19:09;;;;;;;0.90;0.60;;;15.90;99.90;;;;;;5098463;28;20226;-73
2021/10/01 10:21:37;;;;;;;2.70;0.93;;;16.00;99.90;;;;;;5099489;28;20203;-73
2021/10/01 10:24:04;;;;;;;3.13;1.13;;;16.10;99.90;;;;;;5096429;28;20210;-73
2021/10/01 10:26:33;;;;;;;0.70;0.70;;;16.10;99.90;;;;;;5098950;28;20236;-73
2021/10/01 10:29:03;;;;;;;0.97;0.70;;;16.30;99.90;;;;;;5097101;28;20260;-73
2021/10/01 10:31:32;;;;;;;3.50;0.83;;;16.30;99.90;;;;;;5097570;28;20222;-73
2021/10/01 10:33:59;;;;;;;1.57;0.87;;;16.40;99.90;;;;;;5097255;28;20206;-73
2021/10/01 10:36:33;;;;;;;1.43;1.00;;;16.50;99.90;;;;;;5098411;28;20263;-73
2021/10/01 10:39:21;;;;;;;1.40;0.70;;;16.50;99.90;;;;;;5096905;28;20191;-77
2021/10/01 10:42:04;;;;;;;1.17;0.83;;;16.60;99.90;;;;;;5102289;28;20283;-71
2021/10/01 10:44:42;;;;;;;1.20;0.80;;;16.60;99.90;;;;;;5107915;27;20222;-73
2021/10/01 10:47:09;;;;;;;1.90;0.83;;;16.60;99.90;;;;;;5108707;28;20229;-73
2021/10/01 10:49:36;;;;;;;1.70;0.60;;;16.60;99.90;;;;;;5108423;28;20214;-73
2021/10/01 10:52:07;;;;;;;0.70;0.70;;;16.60;99.90;;;;;;5108227;28;20229;-73
2021/10/01 10:54:36;;;;;;;0.73;0.53;;;16.60;99.90;;;;;;5107875;27;20934;-74
2021/10/01 10:57:29;;;;;;;1.17;0.57;;;16.70;99.90;;;;;;5108093;28;20255;-74
2021/10/01 10:59:57;;;;;;;1.90;1.07;;;16.80;99.90;;;;;;5107423;27;20269;-73
2021/10/01 11:02:28;;;;;;;1.63;0.97;;;16.80;99.90;;;;;;5107665;28;20210;-73
2021/10/01 11:05:19;;;;;;;0.90;0.80;;;16.90;99.90;;;;;;5107672;28;20194;-72
2021/10/01 11:07:49;;;;;;;3.47;1.00;;;17.00;99.90;;;;;;5109137;27;20210;-72
2021/10/01 11:10:36;;;;;;;1.23;0.47;;;17.00;99.90;;;;;;5112794;27;20287;-72
2021/10/01 11:13:30;;;;;;;1.80;1.00;;;17.10;99.90;;;;;;5127720;27;20747;-73
2021/10/01 11:16:20;;;;;;;1.20;0.80;;;17.10;99.90;;;;;;5111993;27;20217;-73
2021/10/01 11:19:07;;;;;;;1.60;0.60;;;17.10;99.90;;;;;;5107319;28;20263;-73
2021/10/01 11:21:36;;;;;;;2.03;0.87;;;17.20;99.90;;;;;;5106987;28;20801;-71
2021/10/01 11:24:06;;;;;;;2.07;0.80;;;17.40;99.90;;;;;;5107382;28;20218;-72
2021/10/01 11:26:35;;;;;;;0.90;0.67;;;17.50;99.90;;;;;;5107326;27;20218;-72
2021/10/01 11:29:05;;;;;;;3.43;0.83;;;17.60;99.90;;;;;;5107307;28;20214;-73
2021/10/01 11:31:38;;;;;;;1.43;0.60;;;17.70;99.90;;;;;;5107606;28;20249;-73
2021/10/01 11:34:06;;;;;;;3.13;0.80;;;17.80;99.90;;;;;;5107095;28;20813;-74
2021/10/01 11:36:36;;;;;;;0.80;0.80;;;17.90;99.90;;;;;;5106962;28;20275;-71
2021/10/01 11:39:05;;;;;;;1.03;0.77;;;17.90;99.90;;;;;;5106919;28;20237;-74
2021/10/01 11:41:33;;;;;;;1.30;0.47;;;17.90;99.90;;;;;;5107234;28;20304;-74
2021/10/01 11:44:02;;;;;;;1.87;0.87;;;18.00;99.90;;;;;;5113138;27;20271;-71
2021/10/01 11:46:35;;;;;;;3.03;0.67;;;18.00;99.90;;;;;;5112523;27;20664;-71
2021/10/01 11:49:06;;;;;;;1.43;1.00;;;18.10;99.90;;;;;;5109866;27;20667;-71
2021/10/01 11:51:33;;;;;;;2.67;0.73;;;18.30;99.90;;;;;;5128173;27;20232;-71
2021/10/01 11:54:07;;;;;;;1.40;0.80;;;18.40;99.90;;;;;;5128562;27;20262;-73
2021/10/01 11:56:34;;;;;;;1.53;0.90;;;18.50;99.90;;;;;;5110535;27;20237;-72
2021/10/01 11:59:01;;;;;;;1.60;1.07;;;18.70;99.90;;;;;;5107660;27;20262;-73
2021/10/01 12:01:28;;;;;;;0.97;0.70;;;18.80;99.90;;;;;;5107854;28;20977;-72
2021/10/01 12:03:58;;;;;;;2.47;1.00;;;18.90;99.90;;;;;;5108013;28;20964;-72
2021/10/01 12:06:26;;;;;;;1.17;0.90;;;19.10;99.90;;;;;;5107458;28;20201;-72
2021/10/01 12:08:57;;;;;;;0.93;0.93;;;19.20;99.90;;;;;;5107244;28;20266;-73
2021/10/01 12:11:26;;;;;;;1.33;0.80;;;19.30;99.90;;;;;;5109729;27;20639;-73
2021/10/01 12:13:53;;;;;;;0.90;0.90;;;19.30;99.90;;;;;;5115490;27;20213;-72
2021/10/01 12:16:19;;;;;;;1.00;0.90;;;19.50;99.90;;;;;;5106401;28;20235;-72
2021/10/01 12:18:54;;;;;;;2.87;0.90;;;19.50;99.90;;;;;;5105532;28;20226;-72
2021/10/01 12:21:24;;;;;;;1.20;0.80;;;19.60;99.90;;;;;;5094027;28;20274;-72
2021/10/01 12:23:56;;;;;;;0.67;0.40;;;19.70;99.90;;;;;;5099726;28;20196;-72
2021/10/01 12:26:29;;;;;;;2.10;0.70;;;19.80;99.70;;;;;;5098854;28;20653;-72
2021/10/01 12:29:11;;;;;;;1.20;0.80;;;19.90;98.90;;;;;;5098806;28;20238;-72
2021/10/01 12:31:41;;;;;;;1.50;0.80;;;20.00;98.70;;;;;;5091176;28;20818;-72
2021/10/01 12:34:11;;;;;;;1.87;0.60;;;20.10;98.60;;;;;;5099923;28;20719;-72
2021/10/01 12:36:39;;;;;;;1.47;0.80;;;20.20;98.80;;;;;;5095582;28;20203;-72
2021/10/01 12:39:06;;;;;;;2.97;0.70;;;20.20;98.70;;;;;;5099333;28;20283;-72
2021/10/01 12:41:33;;;;;;;2.00;0.95;;;20.20;99.20;;;;;;5091073;28;20231;-72
2021/10/01 12:44:01;;;;;;;0.70;0.70;;;20.20;99.40;;;;;;5096173;28;20218;-72
2021/10/01 12:46:42;;;;;;;0.40;0.40;;;20.30;99.70;;;;;;5097773;28;20205;-72
2021/10/01 12:49:21;;;;;;;2.53;0.77;;;20.40;99.50;;;;;;5096852;28;20243;-72
2021/10/01 12:52:20;;;;;;;0.60;0.60;;;20.50;98.10;;;;;;5099828;28;20222;-72
2021/10/01 12:54:50;;;;;;;1.40;1.00;;;20.60;97.80;;;;;;5075767;28;20202;-72
2021/10/01 12:57:19;;;;;;;1.33;0.87;;;20.60;98.10;;;;;;5097105;28;20198;-72
2021/10/01 12:59:48;;;;;;;2.53;0.70;;;20.70;98.40;;;;;;5088432;28;20253;-72
2021/10/01 13:02:17;;;;;;;3.08;0.80;;;20.80;97.70;;;;;;5099975;28;20202;-72
2021/10/01 13:04:46;;;;;;;0.60;0.52;;;20.80;96.70;;;;;;5094194;28;20198;-72
2021/10/01 13:07:31;;;;;;;1.27;0.80;;;20.90;96.90;;;;;;5091190;28;20204;-72
2021/10/01 13:10:00;;;;;;;1.58;0.50;;;21.00;96.50;;;;;;5088945;28;20199;-72
2021/10/01 13:12:29;;;;;;;1.95;0.80;;;21.00;95.90;;;;;;5091277;28;20234;-72
2021/10/01 13:15:17;;;;;;;1.50;0.60;;;21.10;96.60;;;;;;5090347;28;20230;-72
2021/10/01 13:17:58;;;;;;;0.87;0.50;;;21.10;96.00;;;;;;5094036;28;20490;-72
2021/10/01 13:20:26;;;;;;;2.97;0.70;;;21.20;95.80;;;;;;5102800;28;20218;-72
2021/10/01 13:22:57;;;;;;;1.77;0.40;;;21.20;95.50;;;;;;5103005;28;20206;-72
2021/10/01 13:25:25;;;;;;;1.33;0.70;;;21.30;95.00;;;;;;5086772;28;20252;-72
2021/10/01 13:27:53;;;;;;;3.67;0.68;;;21.30;95.10;;;;;;5097552;28;20236;-72
2021/10/01 13:30:20;;;;;;;1.57;0.40;;;21.30;95.60;;;;;;5099573;28;20671;-72
2021/10/01 13:32:47;;;;;;;1.73;0.68;;;21.40;94.60;;;;;;5096880;28;20258;-72
2021/10/01 13:35:15;;;;;;;1.35;0.90;;;21.40;95.10;;;;;;5098554;28;20226;-72
2021/10/01 13:37:43;;;;;;;1.35;0.80;;;21.40;95.10;;;;;;5093177;28;20203;-72
2021/10/01 13:40:12;;;;;;;0.60;0.60;;;21.50;95.00;;;;;;5098144;28;20198;-72
2021/10/01 13:42:39;;;;;;;1.60;0.70;;;21.50;96.00;;;;;;5099167;28;20205;-72
2021/10/01 13:45:07;;;;;;;0.63;0.50;;;21.60;95.40;;;;;;5098930;28;20716;-72
2021/10/01 13:47:35;;;;;;;1.40;0.93;;;21.60;94.50;;;;;;5087093;28;20271;-72
2021/10/01 13:50:03;;;;;;;2.42;0.80;;;21.60;94.50;;;;;;5084700;28;20256;-72
2021/10/01 13:52:30;;;;;;;1.50;0.90;;;21.70;94.30;;;;;;5102051;28;20298;-72
2021/10/01 13:54:56;;;;;;;2.55;0.77;;;21.70;93.90;;;;;;5090592;28;20203;-72
2021/10/01 13:57:24;;;;;;;0.90;0.75;;;21.70;93.60;;;;;;5096055;28;20252;-72
2021/10/01 13:59:51;;;;;;;0.70;0.63;;;21.80;93.90;;;;;;5098566;28;20234;-72
2021/10/01 14:02:18;;;;;;;1.00;0.63;;;21.80;93.70;;;;;;5101301;28;20202;-72
2021/10/01 14:04:45;;;;;;;1.20;0.57;;;21.80;93.60;;;;;;5101242;28;20206;-72
2021/10/01 14:07:11;;;;;;;1.00;0.65;;;21.80;93.20;;;;;;5094288;28;20198;-72
2021/10/01 14:09:38;;;;;;;1.77;0.63;;;21.90;93.60;;;;;;5105698;28;20251;-72
2021/10/01 14:12:05;;;;;;;1.25;0.60;;;21.80;93.30;;;;;;5105746;28;20222;-72
2021/10/01 14:14:33;;;;;;;1.83;1.10;;;21.90;92.60;;;;;;5106049;28;20210;-72
2021/10/01 14:17:00;;;;;;;1.08;0.70;;;21.90;93.20;;;;;;5105895;28;20380;-72
2021/10/01 14:19:27;;;;;;;0.57;0.57;;;21.90;92.50;;;;;;5105935;28;20229;-72